Time;durP1;ratioP1;P1;durP2;ratioP2;P2;SDS_P1;SDS_P2;PMS_P1;PMS_P2;Temp;Humidity;BMP_temperature;BMP_pressure;BME280_temperature;BME280_humidity;BME280_pressure;Samples;Min_cycle;Max_cycle;Signal;HPM_P1;HPM_P2
2023/01/10 00:02:17;;;;;;;10.30;2.43;;;6.80;99.90;;;;;;5076880;28;20178;-75
2023/01/10 00:04:42;;;;;;;9.27;2.80;;;6.90;99.90;;;;;;5094971;28;20527;-75
2023/01/10 00:07:08;;;;;;;9.20;2.60;;;6.90;99.90;;;;;;5076473;28;20191;-75
2023/01/10 00:09:33;;;;;;;11.43;2.97;;;7.00;99.90;;;;;;5094828;28;20192;-75
2023/01/10 00:14:43;;;;;;;15.33;2.90;;;6.80;99.90;;;;;;5094463;28;20179;-75
2023/01/10 00:17:09;;;;;;;13.23;2.63;;;6.80;99.90;;;;;;5094575;28;20594;-75
2023/01/10 00:19:34;;;;;;;14.10;3.30;;;6.90;99.90;;;;;;5076741;28;20224;-75
2023/01/10 00:22:04;;;;;;;9.60;4.17;;;7.00;99.90;;;;;;5094551;28;20294;-75
2023/01/10 00:24:30;;;;;;;14.03;2.93;;;7.10;99.90;;;;;;5094601;28;20304;-75
2023/01/10 00:26:55;;;;;;;9.33;3.60;;;7.10;99.90;;;;;;5094153;28;20221;-75
2023/01/10 00:29:34;;;;;;;16.40;3.50;;;7.10;99.90;;;;;;5093465;28;20179;-75
2023/01/10 00:31:59;;;;;;;15.43;2.47;;;7.00;99.90;;;;;;5075562;28;20206;-75
2023/01/10 00:34:26;;;;;;;11.00;3.33;;;7.00;99.90;;;;;;5075917;28;20180;-75
2023/01/10 00:36:52;;;;;;;15.90;4.27;;;7.20;99.90;;;;;;5094349;28;20188;-75
2023/01/10 00:39:20;;;;;;;13.07;3.37;;;7.10;99.90;;;;;;5094501;28;20175;-75
2023/01/10 00:44:31;;;;;;;12.10;3.10;;;6.80;99.90;;;;;;5094822;28;20540;-75
2023/01/10 00:46:57;;;;;;;12.33;2.93;;;7.10;99.90;;;;;;5076183;28;20176;-75
2023/01/10 00:49:22;;;;;;;13.37;3.73;;;7.20;99.90;;;;;;5075913;28;20180;-75
2023/01/10 00:51:48;;;;;;;11.77;3.50;;;7.40;99.90;;;;;;5075835;28;20212;-75
2023/01/10 00:54:14;;;;;;;9.80;2.97;;;7.30;99.90;;;;;;5093505;28;20178;-75
2023/01/10 00:56:40;;;;;;;9.87;2.70;;;7.10;99.90;;;;;;5093686;28;20166;-75
2023/01/10 00:59:05;;;;;;;9.93;2.33;;;7.30;99.90;;;;;;5075645;28;20186;-75
2023/01/10 01:01:32;;;;;;;9.57;3.03;;;7.40;99.90;;;;;;5093869;28;20206;-75
2023/01/10 01:03:58;;;;;;;12.90;3.10;;;7.40;99.90;;;;;;5093773;28;20188;-75
2023/01/10 01:06:24;;;;;;;13.80;3.07;;;7.60;99.90;;;;;;5093759;28;20547;-75
2023/01/10 01:08:50;;;;;;;12.83;3.00;;;7.60;99.90;;;;;;5075205;28;20223;-75
2023/01/10 01:11:15;;;;;;;9.53;3.17;;;7.60;99.90;;;;;;5075085;28;20675;-75
2023/01/10 01:13:42;;;;;;;13.27;2.97;;;7.40;99.90;;;;;;5075638;28;20217;-75
2023/01/10 01:16:08;;;;;;;9.27;2.43;;;7.50;99.90;;;;;;5093405;28;20201;-75
2023/01/10 01:18:33;;;;;;;13.00;2.60;;;7.40;99.90;;;;;;5093462;28;20329;-76
2023/01/10 01:21:02;;;;;;;12.03;2.53;;;7.50;99.90;;;;;;5093231;28;20189;-75
2023/01/10 01:23:28;;;;;;;10.23;2.80;;;7.40;99.90;;;;;;5093076;28;20615;-76
2023/01/10 01:25:55;;;;;;;14.97;3.57;;;7.60;99.90;;;;;;5093509;28;20178;-76
2023/01/10 01:28:21;;;;;;;10.67;2.33;;;7.60;99.90;;;;;;5094018;28;20628;-76
2023/01/10 01:30:47;;;;;;;11.70;3.23;;;7.30;99.90;;;;;;5093283;28;20315;-75
2023/01/10 01:33:15;;;;;;;16.47;3.33;;;7.00;99.90;;;;;;5093464;28;20547;-76
2023/01/10 01:35:42;;;;;;;11.07;2.70;;;6.90;99.90;;;;;;5092880;28;20190;-76
2023/01/10 01:38:08;;;;;;;11.77;2.60;;;6.90;99.90;;;;;;5074892;28;20204;-76
2023/01/10 01:40:35;;;;;;;17.80;3.30;;;7.00;99.90;;;;;;5092969;28;20695;-76
2023/01/10 01:43:00;;;;;;;9.53;2.33;;;6.90;99.90;;;;;;5092585;28;20533;-76
2023/01/10 01:45:38;;;;;;;12.60;2.97;;;7.00;99.90;;;;;;5093053;28;20274;-76
2023/01/10 01:48:34;;;;;;;17.03;3.07;;;7.00;99.90;;;;;;5093200;28;20172;-75
2023/01/10 01:51:17;;;;;;;13.87;3.23;;;7.00;99.90;;;;;;5092909;28;20321;-76
2023/01/10 01:53:47;;;;;;;14.47;2.23;;;7.20;99.90;;;;;;5092747;28;20635;-75
2023/01/10 01:56:18;;;;;;;10.23;2.60;;;7.10;99.90;;;;;;5092849;28;20168;-75
2023/01/10 01:58:49;;;;;;;12.70;2.73;;;7.00;99.90;;;;;;5093025;28;20237;-76
2023/01/10 02:01:15;;;;;;;11.63;2.43;;;6.80;99.90;;;;;;5092690;28;20173;-75
2023/01/10 02:03:44;;;;;;;16.97;3.90;;;7.00;99.90;;;;;;5074733;28;20665;-76
2023/01/10 02:06:10;;;;;;;18.67;3.60;;;7.00;99.90;;;;;;5092552;28;20178;-76
2023/01/10 02:08:39;;;;;;;15.50;3.13;;;7.00;99.90;;;;;;5074727;28;20185;-76
2023/01/10 02:11:09;;;;;;;14.87;2.60;;;7.00;99.90;;;;;;5092183;28;20206;-76
2023/01/10 02:13:42;;;;;;;11.47;2.43;;;7.10;99.90;;;;;;5092978;28;20218;-76
2023/01/10 02:16:08;;;;;;;21.67;3.17;;;6.90;99.90;;;;;;5074586;28;20184;-76
2023/01/10 02:18:36;;;;;;;16.20;2.73;;;6.90;99.90;;;;;;5093049;28;20181;-75
2023/01/10 02:21:21;;;;;;;19.30;4.07;;;6.90;99.90;;;;;;5092318;28;20224;-76
2023/01/10 02:24:05;;;;;;;11.23;2.73;;;6.80;99.90;;;;;;5091995;28;20175;-75
2023/01/10 02:26:49;;;;;;;11.07;2.50;;;6.60;99.90;;;;;;5092652;28;20185;-75
2023/01/10 02:29:20;;;;;;;12.07;2.80;;;6.40;99.90;;;;;;5074508;28;20662;-75
2023/01/10 02:32:21;;;;;;;13.50;2.60;;;6.50;99.90;;;;;;5092204;28;20207;-75
2023/01/10 02:35:02;;;;;;;14.00;2.80;;;6.60;99.90;;;;;;5043768;28;20222;-76
2023/01/10 02:37:39;;;;;;;16.90;2.70;;;6.70;99.90;;;;;;5092429;28;20532;-75
2023/01/10 02:40:17;;;;;;;15.90;3.03;;;6.90;99.90;;;;;;5092460;28;20766;-76
2023/01/10 02:42:46;;;;;;;13.13;2.20;;;6.60;99.90;;;;;;5092541;28;20619;-75
2023/01/10 02:45:28;;;;;;;14.47;2.60;;;6.60;99.90;;;;;;5092742;28;20181;-75
2023/01/10 02:47:55;;;;;;;15.60;3.43;;;6.60;99.90;;;;;;5092540;28;20186;-75
2023/01/10 02:50:24;;;;;;;15.10;3.83;;;6.40;99.90;;;;;;5092428;28;20238;-76
2023/01/10 02:52:49;;;;;;;17.97;3.57;;;6.30;99.90;;;;;;5093196;28;20360;-76
2023/01/10 02:55:15;;;;;;;14.70;3.17;;;6.30;99.90;;;;;;5096650;28;20258;-76
2023/01/10 02:57:47;;;;;;;13.37;2.90;;;6.30;99.90;;;;;;5078355;28;20232;-76
2023/01/10 03:00:18;;;;;;;17.20;2.93;;;6.20;99.90;;;;;;5096523;28;20175;-76
2023/01/10 03:03:41;;;;;;;15.37;2.73;;;6.20;99.90;;;;;;5095985;28;20236;-76
2023/01/10 03:06:12;;;;;;;12.77;2.43;;;6.20;99.90;;;;;;5057657;28;20183;-76
2023/01/10 03:09:01;;;;;;;13.57;2.90;;;6.20;99.90;;;;;;5095832;28;20188;-76
2023/01/10 03:11:42;;;;;;;12.20;2.70;;;6.30;99.90;;;;;;5077718;28;20218;-76
2023/01/10 03:14:23;;;;;;;18.03;3.67;;;6.30;99.90;;;;;;5096132;28;20189;-77
2023/01/10 03:17:03;;;;;;;14.70;3.50;;;6.30;99.90;;;;;;5096082;28;20267;-76
2023/01/10 03:19:34;;;;;;;20.10;3.90;;;6.50;99.90;;;;;;5096087;28;20172;-76
2023/01/10 03:22:01;;;;;;;20.17;3.87;;;6.60;99.90;;;;;;5095782;28;20187;-76
2023/01/10 03:24:40;;;;;;;6.27;1.80;;;6.80;99.90;;;;;;5095734;28;20206;-75
2023/01/10 03:27:18;;;;;;;15.67;3.10;;;6.60;99.90;;;;;;5095844;28;20261;-75
2023/01/10 03:29:55;;;;;;;11.03;2.83;;;6.70;99.90;;;;;;5077883;28;20250;-75
2023/01/10 03:32:25;;;;;;;18.27;3.00;;;6.50;99.90;;;;;;5095653;28;20669;-75
2023/01/10 03:34:52;;;;;;;19.00;3.67;;;6.70;99.90;;;;;;5095640;28;20187;-75
2023/01/10 03:37:35;;;;;;;11.83;2.90;;;6.70;99.90;;;;;;5095278;28;20195;-75
2023/01/10 03:40:13;;;;;;;10.77;2.50;;;6.70;99.90;;;;;;5095567;28;20199;-76
2023/01/10 03:46:20;;;;;;;13.57;3.27;;;6.80;99.90;;;;;;5095651;28;20724;-75
2023/01/10 03:48:48;;;;;;;11.90;2.43;;;6.80;99.90;;;;;;4993713;28;20190;-75
2023/01/10 03:51:16;;;;;;;22.30;3.30;;;6.50;99.90;;;;;;5076013;28;20615;-75
2023/01/10 03:53:42;;;;;;;19.17;3.40;;;6.50;99.90;;;;;;5094984;28;20170;-76
2023/01/10 03:56:12;;;;;;;16.50;3.87;;;6.40;99.90;;;;;;5095460;28;20181;-75
2023/01/10 03:58:38;;;;;;;16.43;3.87;;;6.20;99.90;;;;;;5095125;28;20197;-75
2023/01/10 04:01:03;;;;;;;13.77;3.00;;;6.20;99.90;;;;;;5095203;28;20202;-75
2023/01/10 04:03:29;;;;;;;12.97;3.20;;;6.40;99.90;;;;;;5094908;28;20600;-75
2023/01/10 04:05:55;;;;;;;17.73;3.13;;;6.10;99.90;;;;;;5094175;28;20174;-75
2023/01/10 04:08:20;;;;;;;20.47;4.97;;;6.10;99.90;;;;;;5094858;28;20167;-75
2023/01/10 04:10:48;;;;;;;12.40;3.40;;;5.90;99.90;;;;;;5076559;28;20656;-75
2023/01/10 04:13:13;;;;;;;14.87;3.20;;;6.00;99.90;;;;;;5094929;28;20168;-75
2023/01/10 04:15:39;;;;;;;21.83;3.60;;;6.00;99.90;;;;;;5076748;28;20191;-75
2023/01/10 04:18:05;;;;;;;17.50;3.50;;;6.20;99.90;;;;;;5094925;28;20249;-75
2023/01/10 04:20:30;;;;;;;23.37;3.77;;;6.30;99.90;;;;;;5094372;28;20203;-74
2023/01/10 04:22:56;;;;;;;18.53;3.17;;;6.50;99.90;;;;;;5094772;28;20168;-75
2023/01/10 04:25:22;;;;;;;19.03;2.87;;;6.30;99.90;;;;;;5094911;28;20179;-75
2023/01/10 04:27:49;;;;;;;32.37;4.77;;;6.20;99.90;;;;;;5094665;28;20181;-75
2023/01/10 04:30:15;;;;;;;17.00;3.80;;;6.20;99.90;;;;;;5094438;28;20228;-75
2023/01/10 04:32:41;;;;;;;19.77;4.00;;;6.10;99.90;;;;;;5094336;28;20202;-75
2023/01/10 04:35:07;;;;;;;25.13;4.63;;;6.10;99.90;;;;;;5093819;28;20668;-75
2023/01/10 04:37:32;;;;;;;15.70;3.43;;;6.10;99.90;;;;;;5094444;28;20191;-75
2023/01/10 04:39:58;;;;;;;19.50;3.67;;;6.20;99.90;;;;;;5094236;28;20217;-75
2023/01/10 04:42:23;;;;;;;20.53;3.63;;;6.10;99.90;;;;;;5094395;28;20181;-75
2023/01/10 04:44:49;;;;;;;19.57;3.20;;;6.00;99.90;;;;;;5093948;28;20180;-75
2023/01/10 04:47:15;;;;;;;19.77;3.63;;;6.00;99.90;;;;;;5094283;28;20177;-75
2023/01/10 04:49:40;;;;;;;18.30;3.40;;;5.90;99.90;;;;;;5093941;28;20212;-75
2023/01/10 04:52:06;;;;;;;23.00;3.77;;;5.90;99.90;;;;;;5094061;28;20214;-75
2023/01/10 04:54:31;;;;;;;19.93;3.37;;;5.90;99.90;;;;;;5094036;28;20164;-75
2023/01/10 04:56:57;;;;;;;16.83;3.30;;;5.90;99.90;;;;;;5075944;28;20167;-75
2023/01/10 04:59:23;;;;;;;17.43;3.70;;;5.90;99.90;;;;;;5093938;28;20202;-76
2023/01/10 05:01:48;;;;;;;18.00;2.93;;;5.90;99.90;;;;;;5093558;28;20172;-75
2023/01/10 05:04:14;;;;;;;20.73;3.77;;;5.80;99.90;;;;;;5075518;28;20707;-75
2023/01/10 05:06:40;;;;;;;19.07;3.27;;;5.70;99.90;;;;;;5093759;28;20168;-75
2023/01/10 05:09:06;;;;;;;20.63;3.60;;;5.80;99.90;;;;;;5093855;28;20172;-75
2023/01/10 05:11:32;;;;;;;19.37;3.53;;;5.90;99.90;;;;;;5093221;28;20287;-75
2023/01/10 05:13:58;;;;;;;12.40;2.93;;;5.90;99.90;;;;;;5093861;28;20252;-76
2023/01/10 05:16:24;;;;;;;20.23;3.33;;;5.90;99.90;;;;;;5092479;28;20163;-76
2023/01/10 05:18:50;;;;;;;19.40;2.90;;;5.90;99.90;;;;;;5093518;28;20644;-77
2023/01/10 05:21:16;;;;;;;25.20;3.60;;;6.00;99.90;;;;;;5093547;28;20183;-75
2023/01/10 05:23:42;;;;;;;19.77;3.57;;;5.90;99.90;;;;;;5093629;28;20171;-75
2023/01/10 05:26:11;;;;;;;18.83;3.00;;;6.00;99.90;;;;;;5075527;28;20182;-74
2023/01/10 05:28:38;;;;;;;19.83;3.00;;;5.90;99.90;;;;;;5093573;28;20169;-75
2023/01/10 05:31:10;;;;;;;17.33;2.93;;;5.90;99.90;;;;;;5093055;28;20268;-75
2023/01/10 05:33:35;;;;;;;22.97;4.07;;;5.90;99.90;;;;;;5093134;28;20170;-75
2023/01/10 05:36:03;;;;;;;17.40;3.30;;;5.90;99.90;;;;;;5093277;28;20555;-75
2023/01/10 05:38:29;;;;;;;14.57;3.13;;;5.90;99.90;;;;;;5075300;28;20246;-75
2023/01/10 05:40:56;;;;;;;20.50;3.93;;;5.80;99.90;;;;;;5075103;28;20179;-75
2023/01/10 05:43:23;;;;;;;27.60;4.50;;;5.70;99.90;;;;;;5093109;28;20204;-76
2023/01/10 05:45:49;;;;;;;19.67;3.70;;;5.70;99.90;;;;;;5093356;28;20229;-76
2023/01/10 05:48:15;;;;;;;19.23;3.70;;;5.90;99.90;;;;;;5090266;28;20179;-75
2023/01/10 05:50:41;;;;;;;20.47;2.53;;;5.80;99.90;;;;;;5074539;28;20660;-76
2023/01/10 05:53:07;;;;;;;21.17;3.63;;;5.70;99.90;;;;;;5069405;28;20171;-76
2023/01/10 05:55:33;;;;;;;16.23;2.80;;;5.70;99.90;;;;;;5074957;28;20171;-76
2023/01/10 05:57:59;;;;;;;15.07;3.50;;;5.70;99.90;;;;;;5093682;28;20164;-75
2023/01/10 06:00:25;;;;;;;20.23;4.60;;;5.60;99.90;;;;;;5093398;28;20709;-76
2023/01/10 06:02:54;;;;;;;17.27;2.80;;;5.60;99.90;;;;;;5084072;28;20210;-77
2023/01/10 06:05:20;;;;;;;21.43;3.23;;;5.60;99.90;;;;;;5084892;28;20186;-76
2023/01/10 06:07:47;;;;;;;14.63;3.10;;;5.70;99.90;;;;;;5083030;28;20179;-77
2023/01/10 06:10:16;;;;;;;18.77;2.80;;;5.70;99.90;;;;;;5091833;28;20183;-76
2023/01/10 06:12:42;;;;;;;18.80;3.00;;;5.90;99.90;;;;;;5085492;28;20295;-76
2023/01/10 06:15:09;;;;;;;16.77;3.33;;;5.90;99.90;;;;;;5088439;28;20168;-76
2023/01/10 06:17:35;;;;;;;17.97;4.13;;;5.70;99.90;;;;;;5081326;28;20209;-76
2023/01/10 06:20:01;;;;;;;19.30;3.20;;;5.70;99.90;;;;;;5085406;28;20214;-76
2023/01/10 06:22:27;;;;;;;18.83;3.83;;;5.80;99.90;;;;;;5091175;28;20182;-76
2023/01/10 06:24:54;;;;;;;20.77;3.20;;;5.80;99.90;;;;;;5072990;28;20163;-75
2023/01/10 06:27:23;;;;;;;13.00;2.90;;;5.70;99.90;;;;;;5093381;28;20645;-75
2023/01/10 06:29:48;;;;;;;17.30;3.27;;;5.50;99.90;;;;;;5097274;28;20198;-74
2023/01/10 06:32:14;;;;;;;12.63;3.17;;;5.70;99.90;;;;;;5097447;28;20193;-75
2023/01/10 06:34:39;;;;;;;18.57;3.00;;;5.60;99.90;;;;;;5097064;28;20179;-76
2023/01/10 06:37:05;;;;;;;18.90;3.00;;;5.70;99.90;;;;;;5096632;28;20200;-77
2023/01/10 06:39:32;;;;;;;19.03;3.07;;;5.60;99.90;;;;;;5079114;28;20175;-77
2023/01/10 06:41:57;;;;;;;14.53;2.60;;;5.50;99.90;;;;;;5079002;28;20631;-77
2023/01/10 06:44:26;;;;;;;19.30;3.40;;;5.50;99.90;;;;;;5098821;28;20173;-82
2023/01/10 06:46:52;;;;;;;21.13;3.07;;;5.50;99.90;;;;;;5079235;28;20188;-76
2023/01/10 06:49:17;;;;;;;20.73;3.10;;;5.50;99.90;;;;;;5080584;28;20592;-76
2023/01/10 06:51:43;;;;;;;21.80;3.07;;;5.50;99.90;;;;;;5076739;28;20290;-75
2023/01/10 06:54:08;;;;;;;15.77;3.00;;;5.60;99.90;;;;;;5076561;28;20187;-76
2023/01/10 06:56:34;;;;;;;19.70;3.50;;;5.60;99.90;;;;;;5082488;28;20184;-77
2023/01/10 06:59:00;;;;;;;15.87;3.40;;;5.60;99.90;;;;;;5080196;28;20191;-76
2023/01/10 07:01:26;;;;;;;11.70;2.93;;;5.80;99.90;;;;;;5089345;28;20199;-76
2023/01/10 07:03:52;;;;;;;19.60;3.83;;;5.60;99.90;;;;;;5095917;28;20190;-76
2023/01/10 07:06:18;;;;;;;16.73;3.10;;;5.60;99.90;;;;;;5095180;28;20179;-75
2023/01/10 07:08:45;;;;;;;17.30;3.10;;;5.60;99.90;;;;;;5077774;28;20183;-75
2023/01/10 07:11:13;;;;;;;15.03;2.83;;;5.60;99.90;;;;;;5095985;28;20666;-76
2023/01/10 07:13:39;;;;;;;16.90;3.13;;;5.70;99.90;;;;;;5095334;28;20173;-76
2023/01/10 07:16:07;;;;;;;18.50;3.23;;;5.60;99.90;;;;;;5095844;28;20173;-76
2023/01/10 07:18:34;;;;;;;20.07;3.27;;;5.50;99.90;;;;;;5076998;28;20183;-76
2023/01/10 07:21:00;;;;;;;15.87;3.37;;;5.50;99.90;;;;;;5095556;28;20171;-76
2023/01/10 07:23:26;;;;;;;16.87;3.07;;;5.40;99.90;;;;;;5077272;28;20232;-75
2023/01/10 07:25:52;;;;;;;15.50;3.17;;;5.50;99.90;;;;;;5095441;28;20174;-76
2023/01/10 07:28:17;;;;;;;17.10;2.93;;;5.50;99.90;;;;;;5095199;28;20199;-77
2023/01/10 07:30:43;;;;;;;13.10;3.00;;;5.30;99.90;;;;;;5095288;28;20190;-75
2023/01/10 07:33:09;;;;;;;15.50;2.70;;;5.30;99.90;;;;;;5095469;28;20197;-75
2023/01/10 07:35:34;;;;;;;16.97;3.33;;;5.20;99.90;;;;;;5095363;28;20172;-75
2023/01/10 07:38:02;;;;;;;17.07;3.07;;;5.30;99.90;;;;;;5095411;28;20178;-74
2023/01/10 07:40:27;;;;;;;16.60;2.87;;;5.20;99.90;;;;;;5094229;28;20174;-76
2023/01/10 07:43:00;;;;;;;15.77;3.40;;;5.10;99.90;;;;;;5076798;28;20652;-74
2023/01/10 07:45:27;;;;;;;17.37;4.10;;;5.00;99.90;;;;;;5095547;28;20161;-74
2023/01/10 07:48:00;;;;;;;10.17;3.27;;;5.00;99.90;;;;;;5095047;28;20327;-74
2023/01/10 07:50:28;;;;;;;12.17;3.10;;;5.00;99.90;;;;;;5077117;28;20189;-74
2023/01/10 07:52:54;;;;;;;15.73;2.63;;;5.00;99.90;;;;;;5094949;28;20293;-74
2023/01/10 07:55:20;;;;;;;14.97;3.10;;;5.10;99.90;;;;;;5095214;28;20161;-73
2023/01/10 07:57:46;;;;;;;17.53;2.97;;;5.20;99.90;;;;;;5094891;28;20172;-73
2023/01/10 08:00:12;;;;;;;12.90;3.17;;;5.30;99.90;;;;;;5095036;28;20175;-74
2023/01/10 08:02:38;;;;;;;19.80;3.47;;;5.40;99.90;;;;;;5094925;28;20599;-73
2023/01/10 08:05:04;;;;;;;17.33;3.43;;;5.50;99.90;;;;;;5095039;28;20264;-73
2023/01/10 08:07:30;;;;;;;16.40;3.63;;;5.50;99.90;;;;;;5094897;28;20212;-73
2023/01/10 08:09:56;;;;;;;19.93;3.67;;;5.40;99.90;;;;;;5094793;28;20224;-74
2023/01/10 08:12:23;;;;;;;13.07;3.00;;;5.50;99.90;;;;;;5076159;28;20213;-74
2023/01/10 08:14:50;;;;;;;15.63;3.00;;;5.60;99.90;;;;;;5094540;28;20201;-74
2023/01/10 08:17:16;;;;;;;13.40;3.80;;;5.70;99.90;;;;;;5076326;28;20181;-73
2023/01/10 08:19:42;;;;;;;16.43;3.23;;;5.90;99.90;;;;;;5076346;28;20582;-74
2023/01/10 08:22:08;;;;;;;12.10;3.37;;;5.90;99.90;;;;;;5094551;28;20179;-74
2023/01/10 08:24:33;;;;;;;17.47;3.13;;;6.00;99.90;;;;;;5094554;28;20178;-73
2023/01/10 08:27:00;;;;;;;9.30;2.83;;;6.00;99.90;;;;;;5094358;28;20259;-73
2023/01/10 08:29:26;;;;;;;14.37;2.30;;;6.00;99.90;;;;;;5094472;28;20280;-74
2023/01/10 08:31:51;;;;;;;15.70;3.30;;;6.00;99.90;;;;;;5094342;28;20218;-73
2023/01/10 08:34:17;;;;;;;14.27;3.20;;;5.90;99.90;;;;;;5094487;28;20628;-73
2023/01/10 08:36:43;;;;;;;17.20;3.67;;;5.90;99.90;;;;;;5094247;28;20198;-73
2023/01/10 08:39:08;;;;;;;13.30;2.97;;;6.00;99.90;;;;;;5094305;28;20175;-74
2023/01/10 08:41:34;;;;;;;15.27;3.03;;;6.00;99.90;;;;;;5094098;28;20258;-74
2023/01/10 08:44:00;;;;;;;16.37;3.07;;;6.00;99.90;;;;;;5076058;28;20183;-74
2023/01/10 08:46:25;;;;;;;13.40;3.43;;;6.00;99.90;;;;;;5094101;28;20640;-75
2023/01/10 08:48:51;;;;;;;18.23;3.20;;;5.90;99.90;;;;;;5094138;28;20163;-74
2023/01/10 08:51:17;;;;;;;23.00;3.83;;;6.00;99.90;;;;;;5093976;28;20209;-74
2023/01/10 08:53:43;;;;;;;12.57;3.37;;;6.00;99.90;;;;;;5075755;28;20179;-73
2023/01/10 08:56:09;;;;;;;14.83;3.30;;;6.10;99.90;;;;;;5093684;28;20169;-74
2023/01/10 08:58:35;;;;;;;15.80;3.83;;;6.30;99.90;;;;;;5093719;28;20205;-74
2023/01/10 09:01:07;;;;;;;19.10;3.00;;;6.20;99.90;;;;;;5093606;28;20549;-73
2023/01/10 09:03:33;;;;;;;14.03;2.93;;;6.20;99.90;;;;;;5075513;28;20196;-73
2023/01/10 09:06:00;;;;;;;21.93;4.67;;;6.10;99.90;;;;;;5093572;28;20233;-73
2023/01/10 09:08:27;;;;;;;15.63;3.40;;;6.10;99.90;;;;;;5093956;28;20573;-74
2023/01/10 09:10:53;;;;;;;13.00;3.73;;;6.10;99.90;;;;;;5093597;28;20195;-73
2023/01/10 09:13:19;;;;;;;12.03;2.90;;;6.20;99.90;;;;;;5093383;28;20846;-74
2023/01/10 09:15:45;;;;;;;15.57;3.50;;;6.20;99.90;;;;;;5093665;28;20166;-73
2023/01/10 09:18:13;;;;;;;20.87;4.60;;;6.30;99.90;;;;;;5093575;28;20172;-74
2023/01/10 09:20:40;;;;;;;15.73;4.03;;;6.30;99.90;;;;;;5093252;28;20174;-74
2023/01/10 09:23:11;;;;;;;20.37;3.17;;;6.40;99.90;;;;;;5093480;28;20181;-74
2023/01/10 09:25:37;;;;;;;14.57;3.30;;;6.40;99.90;;;;;;5092888;28;20167;-73
2023/01/10 09:28:04;;;;;;;19.67;3.50;;;6.40;99.90;;;;;;5093350;28;20174;-74
2023/01/10 09:30:30;;;;;;;17.83;3.67;;;6.50;99.90;;;;;;5093182;28;20178;-74
2023/01/10 09:32:57;;;;;;;11.63;3.53;;;6.60;99.90;;;;;;5093380;28;20207;-75
2023/01/10 09:35:24;;;;;;;13.67;3.77;;;6.70;99.90;;;;;;5093176;28;20176;-74
2023/01/10 09:37:52;;;;;;;21.90;3.97;;;6.80;99.90;;;;;;5093229;28;20187;-74
2023/01/10 09:40:27;;;;;;;13.83;3.40;;;6.70;99.90;;;;;;5092835;28;20176;-74
2023/01/10 09:43:26;;;;;;;19.70;3.17;;;6.80;99.90;;;;;;5093175;28;20172;-74
2023/01/10 09:45:54;;;;;;;18.67;4.03;;;7.00;99.90;;;;;;5092913;28;20179;-74
2023/01/10 09:48:35;;;;;;;14.83;3.20;;;6.90;99.90;;;;;;5093396;28;20182;-74
2023/01/10 09:51:22;;;;;;;20.70;3.50;;;6.90;99.90;;;;;;5092878;28;20199;-73
2023/01/10 09:53:50;;;;;;;14.07;3.87;;;7.00;99.90;;;;;;5092697;28;20177;-73
2023/01/10 09:56:17;;;;;;;17.43;3.57;;;7.00;99.90;;;;;;5092860;28;20582;-73
2023/01/10 09:58:44;;;;;;;20.67;3.53;;;7.30;99.90;;;;;;5092937;28;20530;-73
2023/01/10 10:01:41;;;;;;;18.83;4.20;;;7.50;99.90;;;;;;5092604;28;20176;-73
2023/01/10 10:04:32;;;;;;;14.40;2.73;;;7.30;99.90;;;;;;5091415;28;20192;-73
2023/01/10 10:06:58;;;;;;;10.60;3.13;;;7.20;99.90;;;;;;5092665;28;20200;-74
2023/01/10 10:09:30;;;;;;;15.77;3.13;;;7.20;99.90;;;;;;5074356;28;20181;-76
2023/01/10 10:12:07;;;;;;;14.17;3.27;;;7.30;99.90;;;;;;5074370;28;20238;-75
2023/01/10 10:14:56;;;;;;;15.60;3.03;;;7.40;99.90;;;;;;5092572;28;20183;-73
2023/01/10 10:17:46;;;;;;;20.47;4.07;;;7.50;99.90;;;;;;5092511;28;20538;-75
2023/01/10 10:20:11;;;;;;;21.70;3.77;;;7.40;99.90;;;;;;5092685;28;20165;-74
2023/01/10 10:23:00;;;;;;;13.33;3.40;;;7.50;99.90;;;;;;5092152;28;20197;-74
2023/01/10 10:26:00;;;;;;;9.70;3.10;;;7.10;99.90;;;;;;5092551;28;20255;-74
2023/01/10 10:28:46;;;;;;;20.03;3.30;;;7.30;99.90;;;;;;5092312;28;20188;-74
2023/01/10 10:31:49;;;;;;;14.10;3.17;;;7.60;99.90;;;;;;5092385;28;20283;-74
2023/01/10 10:34:35;;;;;;;16.03;3.43;;;7.70;99.90;;;;;;5074239;28;20184;-74
2023/01/10 10:37:20;;;;;;;12.63;2.67;;;7.90;99.90;;;;;;5073923;28;20644;-73
2023/01/10 10:39:55;;;;;;;17.23;3.87;;;7.80;99.90;;;;;;5092310;28;20180;-74
2023/01/10 10:42:21;;;;;;;15.27;3.33;;;7.90;99.90;;;;;;5092452;28;20751;-74
2023/01/10 10:45:04;;;;;;;8.83;2.77;;;8.10;99.90;;;;;;5092391;28;20195;-73
2023/01/10 10:47:35;;;;;;;15.60;3.23;;;8.10;99.90;;;;;;5092106;28;20281;-73
2023/01/10 10:50:03;;;;;;;15.97;3.17;;;8.00;99.90;;;;;;5092334;28;20281;-73
2023/01/10 10:52:34;;;;;;;13.90;2.10;;;8.20;99.90;;;;;;5092000;28;20215;-73
2023/01/10 10:55:01;;;;;;;17.83;3.50;;;8.00;99.90;;;;;;5092305;28;20746;-73
2023/01/10 10:57:30;;;;;;;14.43;2.60;;;8.10;99.90;;;;;;5092344;28;20560;-74
2023/01/10 10:59:56;;;;;;;17.27;3.87;;;8.10;99.90;;;;;;5092319;28;20169;-74
2023/01/10 11:02:29;;;;;;;14.80;3.73;;;7.90;99.90;;;;;;5074190;28;20173;-70
2023/01/10 11:05:05;;;;;;;19.43;3.23;;;8.00;99.90;;;;;;5092104;28;20685;-72
2023/01/10 11:07:34;;;;;;;13.47;2.90;;;8.10;99.90;;;;;;5091875;28;20185;-70
2023/01/10 11:12:49;;;;;;;11.53;2.67;;;8.40;99.90;;;;;;5092158;28;20209;-70
2023/01/10 11:15:38;;;;;;;15.37;3.03;;;8.30;99.90;;;;;;5095504;28;20178;-69
2023/01/10 11:18:12;;;;;;;12.27;3.13;;;8.40;99.90;;;;;;5095712;28;20627;-69
2023/01/10 11:21:05;;;;;;;23.13;3.30;;;8.40;99.90;;;;;;5077135;28;20211;-70
2023/01/10 11:23:51;;;;;;;15.60;3.53;;;8.30;99.90;;;;;;5078029;28;20188;-69
2023/01/10 11:26:25;;;;;;;13.83;2.83;;;8.40;99.90;;;;;;5095819;28;20627;-70
2023/01/10 11:29:01;;;;;;;15.63;2.93;;;8.40;99.90;;;;;;5077505;28;20189;-70
2023/01/10 11:31:27;;;;;;;14.00;3.37;;;8.50;99.90;;;;;;5095913;28;20262;-70
2023/01/10 11:33:54;;;;;;;14.90;3.43;;;8.50;99.90;;;;;;5077409;28;20178;-70
2023/01/10 11:36:19;;;;;;;12.73;2.80;;;8.30;99.90;;;;;;5095147;28;20195;-72
2023/01/10 11:38:59;;;;;;;15.73;3.47;;;8.20;99.90;;;;;;5095281;28;20181;-70
2023/01/10 11:41:30;;;;;;;13.57;3.20;;;8.30;99.90;;;;;;5095376;28;20627;-70
2023/01/10 11:44:14;;;;;;;19.13;4.67;;;8.40;99.90;;;;;;5076961;28;20210;-70
2023/01/10 11:46:43;;;;;;;17.70;3.63;;;8.50;99.90;;;;;;5095258;28;20188;-70
2023/01/10 11:49:18;;;;;;;19.73;3.90;;;8.30;99.90;;;;;;5094941;28;20175;-70
2023/01/10 11:51:49;;;;;;;16.63;2.80;;;8.30;99.90;;;;;;5095256;28;20212;-69
2023/01/10 11:54:21;;;;;;;22.70;4.53;;;8.30;99.90;;;;;;5095079;28;20180;-69
2023/01/10 11:57:02;;;;;;;19.03;3.83;;;8.40;99.90;;;;;;5095096;28;20204;-69
2023/01/10 11:59:29;;;;;;;18.17;4.00;;;8.40;99.90;;;;;;5095060;28;20574;-71
2023/01/10 12:01:57;;;;;;;22.13;4.77;;;8.40;99.90;;;;;;5095133;28;20211;-72
2023/01/10 12:04:26;;;;;;;13.23;2.97;;;8.40;99.90;;;;;;5094704;28;20228;-70
2023/01/10 12:06:56;;;;;;;15.23;3.33;;;8.70;99.90;;;;;;5094990;28;20192;-70
2023/01/10 12:09:41;;;;;;;21.47;5.23;;;9.00;99.90;;;;;;5094746;28;20654;-69
2023/01/10 12:12:29;;;;;;;30.30;10.10;;;9.10;99.90;;;;;;5076603;28;20590;-71
2023/01/10 12:14:56;;;;;;;19.03;3.70;;;8.70;99.90;;;;;;5095315;28;20167;-69
2023/01/10 12:17:32;;;;;;;20.43;6.20;;;8.70;99.90;;;;;;5094670;28;20173;-69
2023/01/10 12:20:00;;;;;;;20.77;6.50;;;8.90;99.90;;;;;;5076127;28;20172;-69
2023/01/10 12:22:39;;;;;;;23.00;4.53;;;8.70;99.90;;;;;;5094693;28;20590;-69
2023/01/10 12:25:19;;;;;;;31.90;10.73;;;8.70;99.90;;;;;;5075759;28;20689;-69
2023/01/10 12:27:49;;;;;;;260.03;73.40;;;8.80;99.90;;;;;;5094414;28;20177;-69
2023/01/10 12:30:20;;;;;;;25.50;5.73;;;8.70;99.90;;;;;;5094191;28;20177;-69
2023/01/10 12:32:51;;;;;;;21.00;4.83;;;8.60;99.90;;;;;;5094033;28;20688;-70
2023/01/10 12:35:34;;;;;;;17.07;3.83;;;8.50;99.90;;;;;;5094142;28;20631;-70
2023/01/10 12:38:22;;;;;;;22.23;5.90;;;8.40;99.90;;;;;;5094134;28;20712;-70
2023/01/10 12:40:59;;;;;;;18.57;5.50;;;8.30;99.90;;;;;;5094050;28;20191;-69
2023/01/10 12:46:31;;;;;;;19.23;3.00;;;8.20;99.90;;;;;;5094346;28;20161;-75
2023/01/10 12:49:12;;;;;;;12.27;2.70;;;8.10;99.90;;;;;;5094028;28;20180;-74
2023/01/10 12:51:39;;;;;;;12.17;3.13;;;8.20;99.90;;;;;;5093626;28;20199;-74
2023/01/10 12:54:15;;;;;;;20.37;5.30;;;8.20;99.90;;;;;;5093947;28;20203;-70
2023/01/10 12:56:41;;;;;;;10.20;2.77;;;8.10;99.90;;;;;;5093860;28;20169;-70
2023/01/10 12:59:37;;;;;;;13.90;3.97;;;8.20;99.90;;;;;;5093848;28;20205;-69
2023/01/10 13:02:06;;;;;;;20.07;4.40;;;8.10;99.90;;;;;;5093314;28;20241;-74
2023/01/10 13:04:35;;;;;;;16.27;4.07;;;8.00;99.90;;;;;;5093741;28;20263;-73
2023/01/10 13:07:02;;;;;;;14.03;4.33;;;8.10;99.90;;;;;;5075481;28;20219;-73
2023/01/10 13:09:29;;;;;;;17.63;4.23;;;8.00;99.90;;;;;;5093476;28;20182;-74
2023/01/10 13:12:16;;;;;;;19.33;4.97;;;8.00;99.90;;;;;;5093354;28;20205;-73
2023/01/10 13:14:45;;;;;;;39.77;12.37;;;7.90;99.90;;;;;;5093655;28;20252;-73
2023/01/10 13:17:33;;;;;;;28.13;7.27;;;7.70;99.90;;;;;;5093174;28;20714;-74
2023/01/10 13:20:22;;;;;;;22.50;6.80;;;7.60;99.90;;;;;;5093291;28;20264;-74